createdAt,value
2023-04-21T00:00:49.104Z,6.79
2023-04-21T00:03:56.320Z,6.67
2023-04-21T00:07:04.086Z,6.62
2023-04-21T00:10:13.261Z,6.51
2023-04-21T00:13:21.340Z,6.44
2023-04-21T00:16:31.000Z,6.39
2023-04-21T00:19:36.950Z,6.36
2023-04-21T00:22:44.028Z,6.28
2023-04-21T00:25:49.906Z,6.24
2023-04-21T00:28:56.757Z,6.19
2023-04-21T00:32:08.760Z,6.17
2023-04-21T00:35:16.421Z,6.12
2023-04-21T00:38:22.323Z,6.09
2023-04-21T00:41:32.073Z,6.05
2023-04-21T00:44:44.616Z,6.01
2023-04-21T00:47:54.128Z,5.99
2023-04-21T00:51:00.295Z,5.88
2023-04-21T00:54:10.435Z,5.78
2023-04-21T00:57:17.004Z,5.71
2023-04-21T01:00:24.028Z,5.64
2023-04-21T01:03:34.758Z,5.58
2023-04-21T01:06:45.817Z,5.50
2023-04-21T01:09:55.324Z,5.48
2023-04-21T01:13:03.630Z,5.52
2023-04-21T01:16:11.357Z,5.50
2023-04-21T01:19:20.966Z,5.45
2023-04-21T01:22:36.003Z,5.35
2023-04-21T01:25:42.784Z,5.27
2023-04-21T01:28:49.496Z,5.27
2023-04-21T01:31:56.316Z,5.30
2023-04-21T01:35:04.584Z,5.24
2023-04-21T01:38:14.531Z,5.30
2023-04-21T01:41:22.143Z,5.39
2023-04-21T01:44:35.460Z,5.40
2023-04-21T01:47:41.575Z,5.42
2023-04-21T01:50:56.330Z,5.41
2023-04-21T01:54:09.155Z,5.38
2023-04-21T01:57:16.071Z,5.21
2023-04-21T02:00:22.601Z,5.11
2023-04-21T02:03:29.700Z,5.06
2023-04-21T02:06:36.511Z,5.05
2023-04-21T02:09:46.406Z,5.06
2023-04-21T02:12:53.990Z,5.08
2023-04-21T02:16:12.881Z,5.09
2023-04-21T02:19:27.325Z,5.09
2023-04-21T02:22:34.847Z,5.17
2023-04-21T02:25:45.069Z,5.11
2023-04-21T02:28:52.743Z,5.11
2023-04-21T02:32:05.146Z,5.10
2023-04-21T02:35:17.920Z,5.14
2023-04-21T02:38:23.732Z,5.22
2023-04-21T02:41:33.164Z,5.30
2023-04-21T02:44:41.217Z,5.36
2023-04-21T02:47:48.010Z,5.41
2023-04-21T02:50:56.756Z,5.39
2023-04-21T02:54:05.192Z,5.41
2023-04-21T02:57:13.709Z,5.41
2023-04-21T03:00:21.333Z,5.39
2023-04-21T03:03:27.364Z,5.39
2023-04-21T03:06:37.241Z,5.37
2023-04-21T03:09:45.224Z,5.37
2023-04-21T03:12:54.705Z,5.41
2023-04-21T03:16:00.813Z,5.43
2023-04-21T03:19:07.676Z,5.42
2023-04-21T03:22:16.050Z,5.42
2023-04-21T03:25:30.438Z,5.35
2023-04-21T03:28:49.830Z,5.33
2023-04-21T03:32:06.182Z,5.31
2023-04-21T03:35:12.312Z,5.32
2023-04-21T03:38:19.077Z,5.30
2023-04-21T03:41:25.349Z,5.33
2023-04-21T03:44:34.967Z,5.28
2023-04-21T03:47:41.319Z,5.22
2023-04-21T03:50:48.119Z,5.22
2023-04-21T03:53:54.168Z,5.24
2023-04-21T03:57:00.812Z,5.28
2023-04-21T04:00:13.078Z,5.28
2023-04-21T04:03:21.900Z,5.30
2023-04-21T04:06:29.842Z,5.24
2023-04-21T04:09:36.551Z,5.19
2023-04-21T04:12:42.574Z,5.22
2023-04-21T04:15:51.973Z,5.24
2023-04-21T04:18:58.155Z,5.25
2023-04-21T04:22:07.962Z,5.30
2023-04-21T04:25:21.436Z,5.37
2023-04-21T04:28:29.203Z,5.41
2023-04-21T04:31:38.132Z,5.52
2023-04-21T04:34:44.920Z,5.62
2023-04-21T04:37:51.084Z,5.89
2023-04-21T04:40:59.271Z,6.17
2023-04-21T04:44:05.336Z,6.55
2023-04-21T04:47:15.400Z,7.05
2023-04-21T04:50:21.661Z,7.48
2023-04-21T04:53:28.616Z,8.01
2023-04-21T04:56:41.448Z,8.45
2023-04-21T04:59:57.351Z,8.96
2023-04-21T05:03:06.489Z,9.58
2023-04-21T05:06:14.393Z,9.80
2023-04-21T05:09:26.500Z,10.45
2023-04-21T05:12:38.157Z,11.39
2023-04-21T05:15:47.485Z,11.50
2023-04-21T05:18:56.968Z,12.30
2023-04-21T05:22:06.733Z,12.68
2023-04-21T05:25:16.206Z,13.57
2023-04-21T05:28:23.483Z,14.34
2023-04-21T05:31:30.639Z,14.54
2023-04-21T05:34:39.400Z,15.02
2023-04-21T05:37:46.184Z,14.94
2023-04-21T05:40:58.096Z,14.77
2023-04-21T05:44:04.953Z,15.03
2023-04-21T05:47:11.194Z,15.18
2023-04-21T05:50:20.693Z,14.74
2023-04-21T05:53:27.854Z,15.46
2023-04-21T05:56:34.659Z,15.72
2023-04-21T05:59:40.721Z,15.98
2023-04-21T06:02:47.580Z,16.92
2023-04-21T06:06:00.643Z,17.24
2023-04-21T06:09:10.249Z,17.95
2023-04-21T06:12:16.208Z,17.14
2023-04-21T06:15:22.942Z,18.11
2023-04-21T06:18:30.685Z,18.26
2023-04-21T06:21:40.038Z,18.25
2023-04-21T06:24:46.113Z,18.17
2023-04-21T06:27:52.850Z,18.37
2023-04-21T06:30:58.771Z,18.31
2023-04-21T06:34:05.849Z,18.71
2023-04-21T06:37:14.412Z,19.43
2023-04-21T06:40:21.474Z,18.86
2023-04-21T06:43:27.414Z,19.19
2023-04-21T06:46:34.214Z,19.30
2023-04-21T06:49:40.493Z,19.33
2023-04-21T06:52:50.019Z,19.69
2023-04-21T06:55:56.615Z,20.36
2023-04-21T06:59:03.557Z,20.56
2023-04-21T07:02:09.780Z,20.33
2023-04-21T07:05:16.582Z,20.07
2023-04-21T07:08:25.224Z,19.99
2023-04-21T07:11:32.094Z,19.81
2023-04-21T07:14:37.916Z,19.90
2023-04-21T07:17:44.786Z,19.65
2023-04-21T07:20:51.789Z,19.93
2023-04-21T07:24:01.709Z,20.50
2023-04-21T07:27:07.882Z,20.55
2023-04-21T07:30:16.088Z,20.25
2023-04-21T07:33:21.989Z,20.19
2023-04-21T07:36:31.107Z,20.10
2023-04-21T07:39:39.740Z,20.16
2023-04-21T07:42:46.691Z,20.67
2023-04-21T07:45:52.865Z,20.76
2023-04-21T07:49:13.532Z,21.38
2023-04-21T07:52:34.765Z,21.36
2023-04-21T07:55:44.219Z,21.04
2023-04-21T07:58:50.154Z,20.90
2023-04-21T08:01:57.273Z,19.95
2023-04-21T08:05:03.598Z,20.37
2023-04-21T08:08:10.817Z,21.40
2023-04-21T08:11:32.443Z,21.45
2023-04-21T08:14:39.252Z,21.92
2023-04-21T08:17:45.255Z,20.82
2023-04-21T08:20:52.762Z,21.10
2023-04-21T08:23:58.750Z,21.20
2023-04-21T08:27:08.233Z,21.74
2023-04-21T08:30:16.622Z,21.44
2023-04-21T08:33:23.595Z,21.47
2023-04-21T08:36:30.354Z,21.27
2023-04-21T08:39:37.549Z,21.32
2023-04-21T08:42:46.327Z,19.65
2023-04-21T08:45:55.656Z,19.65
2023-04-21T08:49:03.078Z,20.03
2023-04-21T08:52:16.965Z,20.51
2023-04-21T08:55:29.272Z,18.97
2023-04-21T08:58:39.006Z,18.67
2023-04-21T09:02:16.516Z,17.62
2023-04-21T09:05:27.486Z,17.18
2023-04-21T09:08:40.247Z,18.15
2023-04-21T09:11:53.211Z,17.68
2023-04-21T09:15:02.564Z,17.67
2023-04-21T09:18:16.053Z,16.98
2023-04-21T09:21:23.638Z,16.43
2023-04-21T09:24:34.126Z,16.13
2023-04-21T09:27:40.269Z,15.88
2023-04-21T09:30:49.645Z,15.75
2023-04-21T09:34:00.704Z,16.02
2023-04-21T09:37:18.207Z,16.34
2023-04-21T09:40:31.598Z,16.67
2023-04-21T09:43:52.317Z,16.96
2023-04-21T09:47:06.317Z,16.93
2023-04-21T09:50:17.199Z,16.55
2023-04-21T09:53:31.608Z,16.43
2023-04-21T09:56:45.726Z,15.77
2023-04-21T09:59:59.786Z,15.75
2023-04-21T10:03:11.772Z,15.76
2023-04-21T10:06:19.775Z,16.42
2023-04-21T10:09:34.680Z,17.59
2023-04-21T10:12:41.451Z,17.82
2023-04-21T10:15:48.331Z,18.24
2023-04-21T10:18:57.113Z,18.38
2023-04-21T10:22:04.071Z,18.49
2023-04-21T10:25:15.101Z,19.18
2023-04-21T10:28:25.241Z,19.98
2023-04-21T10:31:37.026Z,20.71
2023-04-21T10:34:47.066Z,19.77
2023-04-21T10:37:55.521Z,19.41
2023-04-21T10:41:34.129Z,18.21
2023-04-21T10:44:45.327Z,17.69
2023-04-21T10:47:53.067Z,17.40
2023-04-21T10:51:08.631Z,16.93
2023-04-21T10:54:21.303Z,16.18
2023-04-21T10:57:27.399Z,16.10
2023-04-21T11:00:34.806Z,15.98
2023-04-21T11:03:51.761Z,16.10
2023-04-21T11:07:15.361Z,16.52
2023-04-21T11:10:21.258Z,17.65
2023-04-21T11:13:34.008Z,18.08
2023-04-21T11:16:42.459Z,17.77
2023-04-21T11:19:52.562Z,18.03
2023-04-21T11:23:02.780Z,18.48
2023-04-21T11:26:09.552Z,19.04
2023-04-21T11:29:15.918Z,18.70
2023-04-21T11:32:22.701Z,18.02
2023-04-21T11:35:28.786Z,18.88
2023-04-21T11:38:44.898Z,18.31
2023-04-21T11:41:53.885Z,17.73
2023-04-21T11:45:01.306Z,17.69
2023-04-21T11:48:22.879Z,17.29
2023-04-21T11:51:31.791Z,16.93
2023-04-21T11:54:42.037Z,16.92
2023-04-21T11:57:49.086Z,17.24
2023-04-21T12:00:55.153Z,17.64
2023-04-21T12:04:02.069Z,18.23
2023-04-21T12:07:08.189Z,18.14
2023-04-21T12:10:21.687Z,17.48
2023-04-21T12:13:28.628Z,17.42
2023-04-21T12:16:35.560Z,17.70
2023-04-21T12:19:44.733Z,17.34
2023-04-21T12:22:52.700Z,18.07
2023-04-21T12:26:01.732Z,17.98
2023-04-21T12:29:08.524Z,18.26
2023-04-21T12:32:14.376Z,18.87
2023-04-21T12:35:35.980Z,17.47
2023-04-21T12:38:43.618Z,17.20
2023-04-21T12:41:52.991Z,17.24
2023-04-21T12:44:58.817Z,17.42
2023-04-21T12:48:07.073Z,17.38
2023-04-21T12:51:13.139Z,17.82
2023-04-21T12:54:20.665Z,18.15
2023-04-21T12:57:29.902Z,18.45
2023-04-21T13:00:36.840Z,18.20
2023-04-21T13:03:44.571Z,18.08
2023-04-21T13:06:51.782Z,18.20
2023-04-21T13:09:57.919Z,18.27
2023-04-21T13:13:07.607Z,17.72
2023-04-21T13:16:13.809Z,16.72
2023-04-21T13:19:20.844Z,16.30
2023-04-21T13:22:27.116Z,16.16
2023-04-21T13:25:34.055Z,16.08
2023-04-21T13:28:42.931Z,16.22
2023-04-21T13:31:49.904Z,16.28
2023-04-21T13:34:56.167Z,16.40
2023-04-21T13:38:02.913Z,16.69
2023-04-21T13:41:09.549Z,16.98
2023-04-21T13:44:19.090Z,17.01
2023-04-21T13:47:25.136Z,17.11
2023-04-21T13:50:32.038Z,17.08
2023-04-21T13:53:37.936Z,16.94
2023-04-21T13:56:44.845Z,16.70
2023-04-21T13:59:54.492Z,16.53
2023-04-21T14:03:01.910Z,16.56
2023-04-21T14:06:11.441Z,16.42
2023-04-21T14:09:18.682Z,16.58
2023-04-21T14:12:26.398Z,16.72
2023-04-21T14:15:36.200Z,16.30
2023-04-21T14:18:45.395Z,16.33
2023-04-21T14:21:52.177Z,16.04
2023-04-21T14:24:58.108Z,16.27
2023-04-21T14:28:07.583Z,16.48
2023-04-21T14:31:16.545Z,16.59
2023-04-21T14:34:23.426Z,16.63
2023-04-21T14:37:30.471Z,16.68
2023-04-21T14:40:37.293Z,16.75
2023-04-21T14:43:43.258Z,16.57
2023-04-21T14:47:05.602Z,16.52
2023-04-21T14:50:15.225Z,16.49
2023-04-21T14:53:22.177Z,16.05
2023-04-21T14:56:28.141Z,16.05
2023-04-21T14:59:35.289Z,15.93
2023-04-21T15:02:44.637Z,15.88
2023-04-21T15:05:51.490Z,15.92
2023-04-21T15:08:57.466Z,16.14
2023-04-21T15:12:04.321Z,16.26
2023-04-21T15:15:12.060Z,16.46
2023-04-21T15:18:21.663Z,16.70
2023-04-21T15:21:27.991Z,16.46
2023-04-21T15:24:34.896Z,16.55
2023-04-21T15:27:41.474Z,16.26
2023-04-21T15:30:48.356Z,16.30
2023-04-21T15:33:59.234Z,16.17
2023-04-21T15:37:05.981Z,16.09
2023-04-21T15:40:14.194Z,15.93
2023-04-21T15:43:22.040Z,15.75
2023-04-21T15:46:29.659Z,15.76
2023-04-21T15:49:39.296Z,15.74
2023-04-21T15:52:45.577Z,15.63
2023-04-21T15:55:52.756Z,15.77
2023-04-21T15:58:58.657Z,15.68
2023-04-21T16:02:06.372Z,15.80
2023-04-21T16:05:15.575Z,15.84
2023-04-21T16:08:22.468Z,15.85
2023-04-21T16:11:29.654Z,15.79
2023-04-21T16:14:51.255Z,15.87
2023-04-21T16:18:04.291Z,15.53
2023-04-21T16:21:13.871Z,15.44
2023-04-21T16:24:20.228Z,15.42
2023-04-21T16:27:27.133Z,15.55
2023-04-21T16:30:33.329Z,15.58
2023-04-21T16:33:40.088Z,15.52
2023-04-21T16:36:48.961Z,15.24
2023-04-21T16:40:02.863Z,15.25
2023-04-21T16:43:09.363Z,15.33
2023-04-21T16:46:22.873Z,15.31
2023-04-21T16:49:30.571Z,15.36
2023-04-21T16:52:40.149Z,15.32
2023-04-21T16:55:46.253Z,15.18
2023-04-21T16:58:58.567Z,15.25
2023-04-21T17:02:04.713Z,15.18
2023-04-21T17:05:13.062Z,15.11
2023-04-21T17:08:28.828Z,15.17
2023-04-21T17:11:37.502Z,14.95
2023-04-21T17:14:44.775Z,14.88
2023-04-21T17:17:51.656Z,14.73
2023-04-21T17:20:57.714Z,14.62
2023-04-21T17:24:07.650Z,14.62
2023-04-21T17:27:23.689Z,14.52
2023-04-21T17:30:30.440Z,14.40
2023-04-21T17:33:46.908Z,14.30
2023-04-21T17:36:53.937Z,14.17
2023-04-21T17:40:09.852Z,14.01
2023-04-21T17:43:16.829Z,13.96
2023-04-21T17:46:25.109Z,13.85
2023-04-21T17:49:32.516Z,13.69
2023-04-21T17:52:38.571Z,13.59
2023-04-21T17:55:48.109Z,13.45
2023-04-21T17:58:56.390Z,13.32
2023-04-21T18:02:16.201Z,13.23
2023-04-21T18:05:23.449Z,13.03
2023-04-21T18:08:30.388Z,12.86
2023-04-21T18:11:39.430Z,12.79
2023-04-21T18:14:46.329Z,12.75
2023-04-21T18:17:53.484Z,12.70
2023-04-21T18:21:00.571Z,12.67
2023-04-21T18:24:06.654Z,12.62
2023-04-21T18:27:17.810Z,12.61
2023-04-21T18:30:24.396Z,12.48
2023-04-21T18:33:32.066Z,12.37
2023-04-21T18:36:45.956Z,12.28
2023-04-21T18:39:52.688Z,12.25
2023-04-21T18:43:02.850Z,12.19
2023-04-21T18:46:21.831Z,12.14
2023-04-21T18:49:32.080Z,12.04
2023-04-21T18:52:38.961Z,11.93
2023-04-21T18:55:45.747Z,11.87
2023-04-21T18:58:57.008Z,11.84
2023-04-21T19:02:04.286Z,11.79
2023-04-21T19:05:12.665Z,11.77
2023-04-21T19:08:30.064Z,11.72
2023-04-21T19:11:45.279Z,11.68
2023-04-21T19:14:55.543Z,11.65
2023-04-21T19:18:02.562Z,11.65
2023-04-21T19:21:13.008Z,11.65
2023-04-21T19:24:21.606Z,11.58
2023-04-21T19:27:27.732Z,11.57
2023-04-21T19:30:37.615Z,11.54
2023-04-21T19:33:44.746Z,11.49
2023-04-21T19:36:53.225Z,11.47
2023-04-21T19:39:59.429Z,11.45
2023-04-21T19:43:09.103Z,11.44
2023-04-21T19:46:17.816Z,11.40
2023-04-21T19:49:25.205Z,11.35
2023-04-21T19:52:31.294Z,11.20
2023-04-21T19:55:38.065Z,11.04
2023-04-21T19:58:44.625Z,10.89
2023-04-21T20:02:05.246Z,10.80
2023-04-21T20:05:12.710Z,10.69
2023-04-21T20:08:24.540Z,10.60
2023-04-21T20:11:31.660Z,10.53
2023-04-21T20:14:41.955Z,10.40
2023-04-21T20:17:50.609Z,10.28
2023-04-21T20:20:57.558Z,10.13
2023-04-21T20:24:03.963Z,9.98
2023-04-21T20:27:10.758Z,9.88
2023-04-21T20:30:17.138Z,9.81
2023-04-21T20:33:28.386Z,9.73
2023-04-21T20:36:37.236Z,9.72
2023-04-21T20:39:47.189Z,9.79
2023-04-21T20:42:53.185Z,9.84
2023-04-21T20:46:00.112Z,9.82
2023-04-21T20:49:09.357Z,9.71
2023-04-21T20:52:16.328Z,9.69
2023-04-21T20:55:22.290Z,9.63
2023-04-21T20:58:28.960Z,9.59
2023-04-21T21:01:39.276Z,9.53
2023-04-21T21:04:49.530Z,9.48
2023-04-21T21:08:02.905Z,9.57
2023-04-21T21:11:15.900Z,9.57
2023-04-21T21:14:23.553Z,9.64
2023-04-21T21:17:30.412Z,9.70
2023-04-21T21:20:39.043Z,9.73
2023-04-21T21:23:45.800Z,9.77
2023-04-21T21:26:51.806Z,9.75
2023-04-21T21:29:58.571Z,9.71
2023-04-21T21:33:10.856Z,9.74
2023-04-21T21:36:20.294Z,9.69
2023-04-21T21:39:26.958Z,9.73
2023-04-21T21:42:33.672Z,9.70
2023-04-21T21:45:39.937Z,9.68
2023-04-21T21:48:46.730Z,9.77
2023-04-21T21:51:55.349Z,9.78
2023-04-21T21:55:05.288Z,9.72
2023-04-21T21:58:13.642Z,9.61
2023-04-21T22:01:23.737Z,9.58
2023-04-21T22:04:29.789Z,9.48
2023-04-21T22:07:41.122Z,9.38
2023-04-21T22:10:49.125Z,9.29
2023-04-21T22:13:56.711Z,8.92
2023-04-21T22:17:03.770Z,8.83
2023-04-21T22:20:12.455Z,8.72
2023-04-21T22:23:22.900Z,8.70
2023-04-21T22:26:29.646Z,8.60
2023-04-21T22:29:35.723Z,8.50
2023-04-21T22:32:42.709Z,8.26
2023-04-21T22:35:48.724Z,8.09
2023-04-21T22:38:58.161Z,8.03
2023-04-21T22:42:04.120Z,7.98
2023-04-21T22:45:18.676Z,7.88
2023-04-21T22:48:26.461Z,7.83
2023-04-21T22:51:33.327Z,7.81
2023-04-21T22:54:42.823Z,7.81
2023-04-21T22:57:50.062Z,7.74
2023-04-21T23:00:56.472Z,7.67
2023-04-21T23:04:05.055Z,7.62
2023-04-21T23:07:10.994Z,7.63
2023-04-21T23:10:20.755Z,7.65
2023-04-21T23:13:26.650Z,7.64
2023-04-21T23:16:33.468Z,7.63
2023-04-21T23:19:39.688Z,7.63
2023-04-21T23:22:47.679Z,7.71
2023-04-21T23:25:56.269Z,7.69
2023-04-21T23:29:05.421Z,7.62
2023-04-21T23:32:11.461Z,7.51
2023-04-21T23:35:18.113Z,7.43
2023-04-21T23:38:24.081Z,7.34
2023-04-21T23:41:33.776Z,7.29
2023-04-21T23:44:40.632Z,7.23
2023-04-21T23:47:48.217Z,7.18
2023-04-21T23:50:54.169Z,7.14
2023-04-21T23:54:01.954Z,7.06
2023-04-21T23:57:10.623Z,6.98
